Arnots Addition, PA

12:51 AM EDT on September 02, 2014 (GMT -0400)
FRACKVILLE | Change Station
CLOSE
Current Station
Personal Weather Station
Location: Frackville, PA
Elevation: 1493 ft
Nearby Weather Stations

Elev 1493 ft 40.78 °N, 76.23 °W | Updated 13 minutes ago

Clear
Clear
70.1 °F
Feels Like 70.1 °F
N
0.0
Wind Variable Wind from SE
Gusts 0.0 mph

Today
High -- | Low -- °F
--% Chance of Precip.
Yesterday
High -- | Low -- °F
Precip. -- in
6:32 AM 7:35 PM
Waxing Crescent, 47% visible
Pressure 29.96 in
Visibility 10.0 miles
Clouds Clear
Dew Point 68 °F
Humidity 94%
Rainfall 0.00 in
Snow Depth Not available.
UV 0 out of 12
Pollen 5.60 out of 12
Air Quality Not available.
Flu Activity Not available.
METAR KRDG 020354Z 00000KT 10SM CLR 24/22 A2995 RMK AO2 SLP145 T02390222

More Conditions Fewer Conditions

Pressure 29.96 in
Visibility 10.0 miles
Clouds Clear
Dew Point 68 °F
Humidity 94%
Rainfall 0.00 in
Snow Depth Not available.
UV 0 out of 12
Pollen 5.60 out of 12
Air Quality Not available.
Flu Activity Not available.
METAR KRDG 020354Z 00000KT 10SM CLR 24/22 A2995 RMK AO2 SLP145 T02390222

More Conditions Fewer Conditions

Nowcast | as of 12:27 am EDT on September 2, 2014

Isolated showers and thunderstorms will be across the lower Susquehanna valley overnight. Most of the activity will be along the Maryland border...but storms will be just northeast of Lancaster early on. Some storms will contain torrential downpours. The showers and thunderstorms are moving east at 25 mph.

×

10-Day Weather Forecast

Almanac

Astronomy

Sep. 02, 2014 Rise Set
Actual Time 6:32 AM EDT 7:35 PM EDT
Civil Twilight 6:04 AM EDT 8:03 PM EDT
Nautical Twilight 5:31 AM EDT 8:36 PM EDT
Astronomical Twilight 4:56 AM EDT 9:11 PM EDT
Moon 2:17 PM EDT No Moon Set
Length of Visible Light 13h 58m
Length of Day
13h 02m
Tomorrow will be 2m 35s shorter.
Waxing Crescent, 47% of the Moon is Illuminated
Today
Waxing Crescent
Sep 2
First Quarter
Sep 8
Full
Sep 15
Last Quarter
Sep 24
New

Today's Extremes

State Highs State Lows

Community

WunderPhotos

Upload Photos

1,749,573 photos uploaded!

WunderBlogs® & News

Nearby

Snow Depth

Station Depth Elevation
No new snow has been reported.

Earthquake Activity

City Distance Mag. Time & Date
No recent earthquake activity has been reported nearby.
Minimum magnitude displayed is 2.5.

Coastal Water Temperatures

Place Temperature
No Stations Reporting

Nearby Weather Stations